createdAt,value
2019-01-28T00:00:59.889Z,98570.27
2019-01-28T00:03:31.445Z,98569.73
2019-01-28T00:06:02.975Z,98569.13
2019-01-28T00:08:34.631Z,98562.74
2019-01-28T00:11:06.229Z,98568.37
2019-01-28T00:13:37.679Z,98561.92
2019-01-28T00:16:09.197Z,98563.74
2019-01-28T00:18:40.668Z,98565.03
2019-01-28T00:21:12.226Z,98562.13
2019-01-28T00:23:43.682Z,98554.78
2019-01-28T00:26:15.177Z,98548.27
2019-01-28T00:28:46.933Z,98549.91
2019-01-28T00:31:18.440Z,98545.22
2019-01-28T00:33:49.861Z,98536.86
2019-01-28T00:36:21.357Z,98534.97
2019-01-28T00:38:52.830Z,98530.17
2019-01-28T00:41:24.292Z,98525.94
2019-01-28T00:43:56.168Z,98525.01
2019-01-28T00:46:27.614Z,98525.39
2019-01-28T00:48:59.036Z,98514.55
2019-01-28T00:51:30.541Z,98503.77
2019-01-28T00:54:01.969Z,98509.61
2019-01-28T00:56:36.522Z,98513.86
2019-01-28T00:59:08.317Z,98504.38
2019-01-28T01:01:39.831Z,98499.75
2019-01-28T01:04:11.269Z,98494.59
2019-01-28T01:06:45.172Z,98497.45
2019-01-28T01:09:16.609Z,98505.73
2019-01-28T01:11:48.083Z,98512.31
2019-01-28T01:14:19.806Z,98508.52
2019-01-28T01:16:51.289Z,98509.05
2019-01-28T01:19:22.746Z,98505.65
2019-01-28T01:21:54.377Z,98512.92
2019-01-28T01:24:25.811Z,98514.28
2019-01-28T01:26:57.306Z,98509.44
2019-01-28T01:29:29.033Z,98509.58
2019-01-28T01:32:00.493Z,98512.02
2019-01-28T01:34:31.987Z,98515.69
2019-01-28T01:37:03.534Z,98517.17
2019-01-28T01:39:35.060Z,98519.11
2019-01-28T01:42:06.499Z,98515.54
2019-01-28T01:44:38.185Z,98515.41
2019-01-28T01:47:09.627Z,98504.16
2019-01-28T01:49:41.191Z,98508.08
2019-01-28T01:52:12.633Z,98502.10
2019-01-28T01:54:45.430Z,98506.43
2019-01-28T01:57:17.184Z,98493.66
2019-01-28T01:59:48.945Z,98493.69
2019-01-28T02:02:20.621Z,98495.20
2019-01-28T02:04:52.120Z,98491.45
2019-01-28T02:07:23.569Z,98490.88
2019-01-28T02:09:55.029Z,98487.98
2019-01-28T02:12:26.474Z,98483.58
2019-01-28T02:14:58.199Z,98488.65
2019-01-28T02:17:32.378Z,98495.36
2019-01-28T02:20:03.843Z,98482.27
2019-01-28T02:22:35.286Z,98487.16
2019-01-28T02:25:07.688Z,98494.88
2019-01-28T02:27:39.130Z,98500.40
2019-01-28T02:30:13.641Z,98493.73
2019-01-28T02:32:45.124Z,98495.98
2019-01-28T02:35:16.591Z,98492.05
2019-01-28T02:37:48.329Z,98495.75
2019-01-28T02:40:20.149Z,98492.72
2019-01-28T02:42:54.589Z,98495.41
2019-01-28T02:45:26.382Z,98494.27
2019-01-28T02:47:57.826Z,98488.80
2019-01-28T02:50:29.341Z,98487.69
2019-01-28T02:53:00.798Z,98486.34
2019-01-28T02:55:32.267Z,98490.64
2019-01-28T02:58:04.006Z,98498.17
2019-01-28T03:00:35.810Z,98499.39
2019-01-28T03:03:07.321Z,98503.72
2019-01-28T03:05:38.774Z,98502.65
2019-01-28T03:08:10.258Z,98500.63
2019-01-28T03:10:41.697Z,98508.21
2019-01-28T03:13:13.193Z,98504.22
2019-01-28T03:15:44.953Z,98507.75
2019-01-28T03:18:16.875Z,98512.02
2019-01-28T03:20:48.359Z,98508.37
2019-01-28T03:23:21.297Z,98505.45
2019-01-28T03:25:52.733Z,98508.59
2019-01-28T03:28:24.198Z,98514.73
2019-01-28T03:30:55.910Z,98523.91
2019-01-28T03:33:27.384Z,98528.19
2019-01-28T03:35:58.822Z,98528.73
2019-01-28T03:38:30.601Z,98523.17
2019-01-28T03:41:02.067Z,98516.30
2019-01-28T03:43:33.663Z,98509.06
2019-01-28T03:46:05.338Z,98512.04
2019-01-28T03:48:36.799Z,98511.22
2019-01-28T03:51:08.217Z,98517.20
2019-01-28T03:53:40.296Z,98525.15
2019-01-28T03:56:13.339Z,98525.94
2019-01-28T03:58:44.994Z,98516.23
2019-01-28T04:01:16.834Z,98524.26
2019-01-28T04:03:48.263Z,98513.33
2019-01-28T04:06:19.707Z,98510.67
2019-01-28T04:08:51.229Z,98512.89
2019-01-28T04:11:22.670Z,98507.87
2019-01-28T04:13:54.116Z,98507.49
2019-01-28T04:16:25.820Z,98507.34
2019-01-28T04:18:57.361Z,98515.91
2019-01-28T04:21:30.551Z,98515.30
2019-01-28T04:24:02.073Z,98522.06
2019-01-28T04:26:33.554Z,98518.59
2019-01-28T04:29:04.975Z,98523.06
2019-01-28T04:31:36.796Z,98519.33
2019-01-28T04:34:08.229Z,98522.05
2019-01-28T04:36:39.697Z,98514.09
2019-01-28T04:39:11.138Z,98511.37
2019-01-28T04:41:42.706Z,98505.73
2019-01-28T04:44:14.151Z,98509.89
2019-01-28T04:46:45.888Z,98506.71
2019-01-28T04:49:19.882Z,98497.77
2019-01-28T04:51:52.605Z,98492.95
2019-01-28T04:54:24.244Z,98493.95
2019-01-28T04:56:55.722Z,98499.27
2019-01-28T04:59:27.228Z,98489.92
2019-01-28T05:01:59.021Z,98490.84
2019-01-28T05:04:30.462Z,98488.94
2019-01-28T05:07:04.729Z,98490.36
2019-01-28T05:09:36.186Z,98493.70
2019-01-28T05:12:07.676Z,98489.98
2019-01-28T05:14:39.134Z,98487.55
2019-01-28T05:17:10.916Z,98487.69
2019-01-28T05:19:42.421Z,98482.59
2019-01-28T05:22:16.363Z,98484.87
2019-01-28T05:24:49.091Z,98487.06
2019-01-28T05:27:20.516Z,98486.16
2019-01-28T05:29:51.985Z,98486.98
2019-01-28T05:32:23.769Z,98478.41
2019-01-28T05:34:55.212Z,98482.09
2019-01-28T05:37:26.731Z,98483.63
2019-01-28T05:39:58.239Z,98484.58
2019-01-28T05:42:29.718Z,98480.36
2019-01-28T05:45:01.180Z,98479.83
2019-01-28T05:47:32.862Z,98477.58
2019-01-28T05:50:05.356Z,98482.49
2019-01-28T05:52:36.891Z,98482.64
2019-01-28T05:55:09.496Z,98486.16
2019-01-28T05:57:41.006Z,98486.06
2019-01-28T06:00:19.652Z,98493.88
2019-01-28T06:02:51.264Z,98488.14
2019-01-28T06:05:22.755Z,98493.90
2019-01-28T06:07:54.241Z,98494.95
2019-01-28T06:10:25.828Z,98500.80
2019-01-28T06:12:57.252Z,98503.23
2019-01-28T06:15:28.737Z,98505.13
2019-01-28T06:18:00.479Z,98504.98
2019-01-28T06:20:31.953Z,98504.91
2019-01-28T06:23:03.417Z,98509.22
2019-01-28T06:25:34.893Z,98510.58
2019-01-28T06:28:06.376Z,98509.91
2019-01-28T06:30:37.844Z,98521.59
2019-01-28T06:33:09.657Z,98521.92
2019-01-28T06:35:41.139Z,98524.33
2019-01-28T06:38:12.594Z,98535.94
2019-01-28T06:40:44.084Z,98531.38
2019-01-28T06:43:15.530Z,98532.46
2019-01-28T06:45:47.040Z,98531.92
2019-01-28T06:48:18.821Z,98534.04
2019-01-28T06:50:50.333Z,98544.28
2019-01-28T06:53:21.778Z,98545.28
2019-01-28T06:55:53.247Z,98554.06
2019-01-28T06:58:26.326Z,98557.09
2019-01-28T07:00:58.088Z,98551.55
2019-01-28T07:03:29.938Z,98550.20
2019-01-28T07:06:01.452Z,98546.04
2019-01-28T07:08:32.926Z,98541.70
2019-01-28T07:11:04.401Z,98541.34
2019-01-28T07:13:35.861Z,98541.48
2019-01-28T07:16:07.313Z,98546.80
2019-01-28T07:18:39.188Z,98546.26
2019-01-28T07:21:10.652Z,98546.65
2019-01-28T07:23:42.264Z,98549.38
2019-01-28T07:26:13.795Z,98548.23
2019-01-28T07:28:45.240Z,98556.36
2019-01-28T07:31:16.732Z,98563.81
2019-01-28T07:33:48.461Z,98568.83
2019-01-28T07:36:19.963Z,98569.26
2019-01-28T07:38:52.567Z,98569.34
2019-01-28T07:41:24.101Z,98575.17
2019-01-28T07:43:55.606Z,98573.49
2019-01-28T07:46:27.083Z,98571.48
2019-01-28T07:48:58.863Z,98569.00
2019-01-28T07:51:30.313Z,98568.19
2019-01-28T07:54:01.823Z,98567.20
2019-01-28T07:56:33.330Z,98567.55
2019-01-28T07:59:04.830Z,98565.20
2019-01-28T08:01:36.618Z,98560.89
2019-01-28T08:04:08.290Z,98564.48
2019-01-28T08:06:39.735Z,98554.07
2019-01-28T08:09:11.231Z,98559.24
2019-01-28T08:11:42.976Z,98558.03
2019-01-28T08:14:14.478Z,98557.57
2019-01-28T08:16:45.934Z,98557.69
2019-01-28T08:19:18.114Z,98556.38
2019-01-28T08:21:49.571Z,98560.92
2019-01-28T08:24:21.056Z,98560.43
2019-01-28T08:26:52.498Z,98560.43
2019-01-28T08:29:43.127Z,98553.37
2019-01-28T08:32:14.586Z,98562.84
2019-01-28T08:34:46.393Z,98579.10
2019-01-28T08:37:17.842Z,98590.86
2019-01-28T08:39:49.317Z,98584.13
2019-01-28T08:42:20.759Z,98582.66
2019-01-28T08:44:52.258Z,98570.37
2019-01-28T08:47:23.751Z,98573.33
2019-01-28T08:49:55.493Z,98582.66
2019-01-28T08:52:27.055Z,98578.16
2019-01-28T08:54:58.506Z,98580.17
2019-01-28T08:57:29.971Z,98585.18
2019-01-28T09:00:01.469Z,98586.19
2019-01-28T09:02:33.379Z,98591.83
2019-01-28T09:05:06.691Z,98587.01
2019-01-28T09:07:38.170Z,98594.81
2019-01-28T09:10:12.923Z,98592.50
2019-01-28T09:12:44.379Z,98589.72
2019-01-28T09:15:19.384Z,98593.05
2019-01-28T09:17:51.016Z,98601.00
2019-01-28T09:20:23.549Z,98601.09
2019-01-28T09:22:55.014Z,98601.56
2019-01-28T09:25:26.659Z,98607.66
2019-01-28T09:27:58.136Z,98599.72
2019-01-28T09:30:31.834Z,98598.42
2019-01-28T09:33:03.389Z,98596.38
2019-01-28T09:35:35.334Z,98599.63
2019-01-28T09:38:06.855Z,98596.91
2019-01-28T09:40:38.597Z,98594.05
2019-01-28T09:43:10.081Z,98593.41
2019-01-28T09:45:43.344Z,98581.83
2019-01-28T09:48:16.886Z,98592.85
2019-01-28T09:50:48.382Z,98595.08
2019-01-28T09:53:19.854Z,98589.61
2019-01-28T09:55:51.360Z,98574.84
2019-01-28T09:58:23.181Z,98577.37
2019-01-28T10:00:54.659Z,98578.28
2019-01-28T10:03:26.433Z,98575.93
2019-01-28T10:05:58.289Z,98577.22
2019-01-28T10:08:29.764Z,98574.56
2019-01-28T10:11:02.273Z,98573.09
2019-01-28T10:13:33.948Z,98575.89
2019-01-28T10:16:05.425Z,98577.81
2019-01-28T10:18:41.746Z,98574.81
2019-01-28T10:21:10.179Z,98576.66
2019-01-28T10:23:41.675Z,98572.31
2019-01-28T10:26:13.177Z,98572.17
2019-01-28T10:28:44.643Z,98569.06
2019-01-28T10:31:16.186Z,98559.53
2019-01-28T10:33:48.832Z,98555.73
2019-01-28T10:36:22.725Z,98558.02
2019-01-28T10:38:53.830Z,98556.96
2019-01-28T10:41:25.316Z,98550.39
2019-01-28T10:43:56.803Z,98549.84
2019-01-28T10:46:28.285Z,98544.97
2019-01-28T10:48:59.804Z,98545.88
2019-01-28T10:51:31.465Z,98534.11
2019-01-28T10:54:02.945Z,98532.55
2019-01-28T10:56:34.407Z,98532.14
2019-01-28T10:59:06.159Z,98529.48
2019-01-28T11:01:37.663Z,98521.56
2019-01-28T11:04:09.479Z,98518.39
2019-01-28T11:06:41.321Z,98515.31
2019-01-28T11:09:13.078Z,98503.33
2019-01-28T11:11:44.739Z,98509.72
2019-01-28T11:14:16.300Z,98506.83
2019-01-28T11:16:47.948Z,98503.73
2019-01-28T11:19:19.599Z,98499.31
2019-01-28T11:21:51.530Z,98498.73
2019-01-28T11:24:23.110Z,98498.12
2019-01-28T11:26:54.623Z,98498.53
2019-01-28T11:29:26.170Z,98494.75
2019-01-28T11:31:57.746Z,98504.08
2019-01-28T11:34:29.248Z,98511.38
2019-01-28T11:37:01.385Z,98503.97
2019-01-28T11:39:32.952Z,98500.83
2019-01-28T11:42:04.569Z,98492.52
2019-01-28T11:44:36.168Z,98492.93
2019-01-28T11:47:07.785Z,98491.15
2019-01-28T11:49:39.253Z,98491.30
2019-01-28T11:52:11.147Z,98493.20
2019-01-28T11:54:42.942Z,98489.69
2019-01-28T11:57:14.425Z,98492.52
2019-01-28T11:59:45.926Z,98491.01
2019-01-28T12:02:17.467Z,98496.52
2019-01-28T12:04:49.329Z,98496.95
2019-01-28T12:07:21.107Z,98498.12
2019-01-28T12:09:52.561Z,98494.95
2019-01-28T12:12:24.057Z,98499.15
2019-01-28T12:14:55.554Z,98500.64
2019-01-28T12:17:27.094Z,98495.73
2019-01-28T12:19:58.657Z,98488.75
2019-01-28T12:22:30.422Z,98489.77
2019-01-28T12:25:01.912Z,98491.02
2019-01-28T12:27:33.478Z,98484.79
2019-01-28T12:30:06.421Z,98491.84
2019-01-28T12:32:38.033Z,98496.12
2019-01-28T12:35:11.142Z,98493.36
2019-01-28T12:37:42.597Z,98500.27
2019-01-28T12:40:14.882Z,98499.23
2019-01-28T12:42:46.731Z,98506.30
2019-01-28T12:45:19.887Z,98509.52
2019-01-28T12:47:51.338Z,98508.13
2019-01-28T12:50:22.867Z,98508.14
2019-01-28T12:52:54.546Z,98495.97
2019-01-28T12:55:27.044Z,98503.96
2019-01-28T12:57:58.528Z,98494.94
2019-01-28T13:00:35.219Z,98493.91
2019-01-28T13:03:06.972Z,98494.32
2019-01-28T13:05:39.014Z,98507.76
2019-01-28T13:08:10.637Z,98518.62
2019-01-28T13:10:42.114Z,98515.23
2019-01-28T13:13:13.592Z,98523.67
2019-01-28T13:15:45.090Z,98523.35
2019-01-28T13:18:18.006Z,98521.05
2019-01-28T13:20:50.192Z,98523.40
2019-01-28T13:23:21.909Z,98518.48
2019-01-28T13:25:53.456Z,98511.55
2019-01-28T13:28:24.938Z,98502.16
2019-01-28T13:30:56.536Z,98493.98
2019-01-28T13:33:28.072Z,98503.46
2019-01-28T13:35:59.496Z,98502.67
2019-01-28T13:38:32.929Z,98498.27
2019-01-28T13:41:04.423Z,98494.56
2019-01-28T13:43:35.961Z,98490.30
2019-01-28T13:46:07.494Z,98493.17
2019-01-28T13:48:39.052Z,98506.30
2019-01-28T13:51:10.573Z,98502.98
2019-01-28T13:53:42.461Z,98502.41
2019-01-28T13:56:13.907Z,98507.20
2019-01-28T13:58:47.200Z,98506.52
2019-01-28T14:01:18.675Z,98509.73
2019-01-28T14:03:50.163Z,98517.19
2019-01-28T14:06:21.945Z,98523.27
2019-01-28T14:08:54.094Z,98526.48
2019-01-28T14:11:25.555Z,98525.59
2019-01-28T14:13:57.099Z,98526.47
2019-01-28T14:16:28.560Z,98534.11
2019-01-28T14:19:00.056Z,98535.46
2019-01-28T14:21:31.542Z,98529.13
2019-01-28T14:24:03.322Z,98538.79
2019-01-28T14:26:35.834Z,98535.56
2019-01-28T14:29:08.384Z,98527.82
2019-01-28T14:31:39.964Z,98524.13
2019-01-28T14:34:11.553Z,98523.55
2019-01-28T14:36:43.105Z,98519.75
2019-01-28T14:39:14.910Z,98523.80
2019-01-28T14:41:46.490Z,98517.02
2019-01-28T14:44:18.017Z,98525.09
2019-01-28T14:46:49.493Z,98516.92
2019-01-28T14:49:21.009Z,98517.70
2019-01-28T14:51:52.451Z,98517.25
2019-01-28T14:54:24.310Z,98528.66
2019-01-28T14:56:55.784Z,98533.31
2019-01-28T14:59:27.241Z,98533.41
2019-01-28T15:01:58.685Z,98530.53
2019-01-28T15:04:30.216Z,98522.87
2019-01-28T15:07:01.992Z,98512.48
2019-01-28T15:09:33.763Z,98508.89
2019-01-28T15:12:05.356Z,98507.97
2019-01-28T15:14:37.651Z,98508.16
2019-01-28T15:17:09.181Z,98497.78
2019-01-28T15:19:40.797Z,98504.66
2019-01-28T15:22:12.283Z,98503.02
2019-01-28T15:24:44.034Z,98506.42
2019-01-28T15:27:15.651Z,98511.34
2019-01-28T15:29:47.189Z,98513.30
2019-01-28T15:32:19.166Z,98511.31
2019-01-28T15:34:50.898Z,98509.83
2019-01-28T15:37:22.393Z,98519.25
2019-01-28T15:39:54.370Z,98508.72
2019-01-28T15:42:25.862Z,98511.59
2019-01-28T15:44:57.379Z,98510.78
2019-01-28T15:47:29.088Z,98509.77
2019-01-28T15:50:00.635Z,98506.06
2019-01-28T15:52:32.492Z,98504.09
2019-01-28T15:55:04.724Z,98504.98
2019-01-28T15:57:37.462Z,98521.14
2019-01-28T16:00:13.125Z,98528.80
2019-01-28T16:02:44.810Z,98532.88
2019-01-28T16:05:16.325Z,98532.53
2019-01-28T16:07:50.325Z,98535.20
2019-01-28T16:10:22.077Z,98527.44
2019-01-28T16:12:53.631Z,98527.63
2019-01-28T16:15:40.201Z,98525.78
2019-01-28T16:18:12.050Z,98527.25
2019-01-28T16:20:43.867Z,98532.98
2019-01-28T16:23:15.385Z,98533.55
2019-01-28T16:25:46.937Z,98534.58
2019-01-28T16:28:18.472Z,98531.70
2019-01-28T16:30:50.028Z,98531.05
2019-01-28T16:33:21.539Z,98530.97
2019-01-28T16:35:53.090Z,98524.56
2019-01-28T16:38:24.605Z,98525.31
2019-01-28T16:40:56.150Z,98522.17
2019-01-28T16:43:27.624Z,98528.22
2019-01-28T16:45:59.168Z,98526.44
2019-01-28T16:48:30.706Z,98523.03
2019-01-28T16:51:02.256Z,98531.02
2019-01-28T16:53:33.783Z,98534.23
2019-01-28T16:56:05.707Z,98542.20
2019-01-28T16:58:37.230Z,98547.01
2019-01-28T17:01:08.759Z,98540.44
2019-01-28T17:03:40.294Z,98528.62
2019-01-28T17:06:12.062Z,98550.81
2019-01-28T17:08:43.835Z,98544.41
2019-01-28T17:11:15.661Z,98545.80
2019-01-28T17:13:47.219Z,98541.26
2019-01-28T17:16:18.840Z,98546.19
2019-01-28T17:18:50.526Z,98546.94
2019-01-28T17:21:22.093Z,98548.70
2019-01-28T17:23:53.635Z,98548.80
2019-01-28T17:26:26.495Z,98549.14
2019-01-28T17:28:58.067Z,98546.55
2019-01-28T17:31:29.571Z,98545.16
2019-01-28T17:34:01.112Z,98553.42
2019-01-28T17:36:32.740Z,98551.75
2019-01-28T17:39:06.113Z,98546.38
2019-01-28T17:41:37.705Z,98540.27
2019-01-28T17:44:09.165Z,98550.10
2019-01-28T17:46:40.758Z,98551.76
2019-01-28T17:49:12.385Z,98546.75
2019-01-28T17:51:43.900Z,98552.32
2019-01-28T17:54:15.393Z,98552.20
2019-01-28T17:56:47.170Z,98557.69
2019-01-28T17:59:18.625Z,98558.13
2019-01-28T18:01:50.130Z,98556.48
2019-01-28T18:04:21.687Z,98558.87
2019-01-28T18:06:53.216Z,98559.16
2019-01-28T18:09:25.053Z,98564.52
2019-01-28T18:11:56.773Z,98556.09
2019-01-28T18:14:28.403Z,98549.27
2019-01-28T18:16:59.935Z,98555.45
2019-01-28T18:19:32.084Z,98553.33
2019-01-28T18:22:03.730Z,98554.54
2019-01-28T18:24:35.294Z,98552.39
2019-01-28T18:27:07.246Z,98555.10
2019-01-28T18:29:38.938Z,98545.83
2019-01-28T18:32:11.745Z,98549.36
2019-01-28T18:34:43.460Z,98546.77
2019-01-28T18:37:15.385Z,98546.86
2019-01-28T18:39:47.097Z,98540.11
2019-01-28T18:42:19.186Z,98544.26
2019-01-28T18:44:50.957Z,98544.34
2019-01-28T18:47:22.602Z,98554.72
2019-01-28T18:49:54.433Z,98551.77
2019-01-28T18:52:26.113Z,98557.69
2019-01-28T18:54:57.788Z,98557.95
2019-01-28T18:57:29.940Z,98556.40
2019-01-28T19:00:01.856Z,98552.03
2019-01-28T19:02:34.363Z,98556.39
2019-01-28T19:05:07.605Z,98558.13
2019-01-28T19:07:44.196Z,98556.57
2019-01-28T19:10:38.379Z,98562.67
2019-01-28T19:13:15.166Z,98552.69
2019-01-28T19:15:55.916Z,98553.59
2019-01-28T19:18:32.323Z,98551.09
2019-01-28T19:21:08.395Z,98557.75
2019-01-28T19:23:40.416Z,98554.42
2019-01-28T19:26:13.174Z,98557.87
2019-01-28T19:28:44.835Z,98557.75
2019-01-28T19:31:16.595Z,98561.94
2019-01-28T19:33:49.868Z,98561.55
2019-01-28T19:36:21.742Z,98560.81
2019-01-28T19:38:54.523Z,98562.75
2019-01-28T19:41:26.633Z,98560.25
2019-01-28T19:43:58.637Z,98565.08
2019-01-28T19:46:30.544Z,98565.05
2019-01-28T19:49:02.530Z,98563.41
2019-01-28T19:51:34.260Z,98565.55
2019-01-28T19:54:05.807Z,98565.17
2019-01-28T19:56:37.602Z,98568.67
2019-01-28T19:59:09.351Z,98567.02
2019-01-28T20:01:41.183Z,98570.62
2019-01-28T20:04:13.009Z,98576.09
2019-01-28T20:06:44.966Z,98569.41
2019-01-28T20:09:16.621Z,98572.30
2019-01-28T20:11:48.561Z,98570.83
2019-01-28T20:14:20.392Z,98569.88
2019-01-28T20:16:51.965Z,98567.37
2019-01-28T20:19:24.916Z,98576.83
2019-01-28T20:21:56.589Z,98582.92
2019-01-28T20:24:28.124Z,98578.13
2019-01-28T20:26:59.828Z,98585.03
2019-01-28T20:29:31.434Z,98590.22
2019-01-28T20:32:03.243Z,98587.92
2019-01-28T20:34:34.906Z,98585.03
2019-01-28T20:37:08.133Z,98586.72
2019-01-28T20:39:40.636Z,98590.52
2019-01-28T20:42:12.395Z,98591.34
2019-01-28T20:44:45.200Z,98597.82
2019-01-28T20:47:16.850Z,98595.70
2019-01-28T20:49:48.517Z,98596.91
2019-01-28T20:52:20.332Z,98600.24
2019-01-28T20:54:51.984Z,98601.06
2019-01-28T20:57:24.881Z,98599.50
2019-01-28T21:00:00.690Z,98607.09
2019-01-28T21:02:32.396Z,98610.78
2019-01-28T21:05:04.108Z,98614.14
2019-01-28T21:07:36.196Z,98614.79
2019-01-28T21:10:10.252Z,98613.50
2019-01-28T21:12:42.053Z,98610.17
2019-01-28T21:15:15.827Z,98616.17
2019-01-28T21:17:48.374Z,98615.62
2019-01-28T21:20:20.231Z,98618.50
2019-01-28T21:22:51.759Z,98616.91
2019-01-28T21:25:25.099Z,98614.70
2019-01-28T21:27:56.723Z,98619.97
2019-01-28T21:30:31.821Z,98619.80
2019-01-28T21:33:03.442Z,98624.25
2019-01-28T21:35:53.005Z,98620.63
2019-01-28T21:38:35.647Z,98622.57
2019-01-28T21:41:07.448Z,98619.06
2019-01-28T21:43:39.028Z,98620.27
2019-01-28T21:46:10.717Z,98621.57
2019-01-28T21:48:42.431Z,98624.72
2019-01-28T21:51:14.006Z,98626.93
2019-01-28T21:53:45.772Z,98624.72
2019-01-28T21:56:17.663Z,98630.99
2019-01-28T21:58:49.320Z,98623.52
2019-01-28T22:01:20.834Z,98630.25
2019-01-28T22:03:52.420Z,98627.66
2019-01-28T22:06:23.997Z,98628.61
2019-01-28T22:08:55.537Z,98627.58
2019-01-28T22:11:28.192Z,98631.94
2019-01-28T22:14:00.083Z,98623.78
2019-01-28T22:16:31.589Z,98627.58
2019-01-28T22:19:03.121Z,98624.16
2019-01-28T22:21:34.633Z,98630.08
2019-01-28T22:24:06.298Z,98623.89
2019-01-28T22:26:37.792Z,98633.79
2019-01-28T22:29:09.489Z,98630.91
2019-01-28T22:31:41.386Z,98644.42
2019-01-28T22:34:12.956Z,98635.83
2019-01-28T22:36:44.514Z,98642.39
2019-01-28T22:39:15.957Z,98640.31
2019-01-28T22:41:47.485Z,98643.65
2019-01-28T22:44:19.084Z,98649.56
2019-01-28T22:46:50.966Z,98646.13
2019-01-28T22:49:22.545Z,98642.34
2019-01-28T22:51:54.013Z,98640.66
2019-01-28T22:54:25.507Z,98651.50
2019-01-28T22:56:56.983Z,98656.56
2019-01-28T22:59:28.643Z,98655.38
2019-01-28T23:02:00.581Z,98657.63
2019-01-28T23:04:32.215Z,98655.86
2019-01-28T23:07:03.723Z,98663.41
2019-01-28T23:09:35.240Z,98662.97
2019-01-28T23:12:06.699Z,98662.59
2019-01-28T23:14:38.592Z,98661.52
2019-01-28T23:17:10.436Z,98657.64
2019-01-28T23:19:41.977Z,98658.02
2019-01-28T23:22:16.387Z,98655.52
2019-01-28T23:24:46.643Z,98658.36
2019-01-28T23:27:18.263Z,98665.19
2019-01-28T23:29:49.776Z,98663.62
2019-01-28T23:32:33.679Z,98660.95
2019-01-28T23:35:05.718Z,98658.38
2019-01-28T23:37:37.433Z,98660.87
2019-01-28T23:40:08.982Z,98672.56
2019-01-28T23:42:40.719Z,98671.81
2019-01-28T23:45:12.239Z,98673.76
2019-01-28T23:47:43.673Z,98680.16
2019-01-28T23:50:15.212Z,98673.50
2019-01-28T23:52:46.682Z,98673.91
2019-01-28T23:55:18.116Z,98675.20
2019-01-28T23:57:56.729Z,98678.72
